MDST

Cibao International Airport

Airport
ICAO code
MDST
IATA Code
STI
Summary
ICAO Region
CARSAM
ICAO Territory
Location

Santiago de los Caballeros, Dominican Republic

Serving
Santiago de los Caballeros
Elevation
565 ft
Coordinates
19° 24' 8" N , 70° 36' 7" W
KCC
Aw
Airport WX
Tropical Revolving Storm
Metar
Observation
MDST 190700Z 11004KT 080V140 9999 FEW017CB FEW019 BKN300 25/24 Q1015 CB/NW
Station
Santiago
Date/Time
2022-08-19 07:00:00
Wind direction
110°
Wind speed
04 kts
Lowest cloud amount
few clouds
Temperature
25°C
Dew point
24°C
Humidity
94%
QNH
1015 hPa
Weather condition
n/a

Cibao International Airport, also known as Santiago Airport, is located in Santiago de los Caballeros, Dominican Republic's second-largest city

Climatology

Tropical savannah climate (Köppen climate classification Aw)

Runways

Designator Length Width Surface Rops
11/29 2620 45 ASP Yes/Yes

Airport map

Aerial View

SKYbrary Partners:

Safety knowledge contributed by: